createdAt,value
2023-02-09T00:00:58.170Z,-2
2023-02-09T00:15:43.738Z,-2.2
2023-02-09T00:30:59.477Z,-2.3
2023-02-09T00:45:34.702Z,-2.3
2023-02-09T01:00:58.095Z,-2.4
2023-02-09T01:15:35.080Z,-2.4
2023-02-09T01:30:58.628Z,-2.4
2023-02-09T01:45:34.336Z,-2.4
2023-02-09T02:15:35.774Z,-2.6
2023-02-09T02:30:58.648Z,-2.6
2023-02-09T02:45:34.584Z,-2.6
2023-02-09T03:01:00.682Z,-2.7
2023-02-09T03:15:34.540Z,-2.8
2023-02-09T03:30:57.078Z,-2.8
2023-02-09T03:45:54.265Z,-2.8
2023-02-09T04:01:04.261Z,-2.8
2023-02-09T04:15:35.778Z,-2.9
2023-02-09T04:30:59.604Z,-3
2023-02-09T04:45:34.658Z,-2.9
2023-02-09T05:01:28.283Z,-2.9
2023-02-09T05:15:35.836Z,-3
2023-02-09T05:30:59.344Z,-3
2023-02-09T05:45:34.735Z,-3
2023-02-09T06:00:58.233Z,-3
2023-02-09T06:15:35.646Z,-3.1
2023-02-09T06:31:01.041Z,-2.9
2023-02-09T06:46:01.430Z,-3
2023-02-09T07:00:57.329Z,-3.1
2023-02-09T07:15:35.092Z,-2.9
2023-02-09T07:31:29.008Z,-3
2023-02-09T07:46:03.730Z,-2.6
2023-02-09T08:01:32.489Z,-2.4
2023-02-09T08:16:02.944Z,-2.5
2023-02-09T08:31:24.322Z,-2.4
2023-02-09T08:46:07.231Z,-1.7
2023-02-09T09:01:30.278Z,-1.7
2023-02-09T09:16:00.641Z,-1.2
2023-02-09T09:31:25.587Z,-1
2023-02-09T09:46:01.577Z,-0.6
2023-02-09T10:01:31.334Z,0
2023-02-09T10:16:01.977Z,-0.1
2023-02-09T10:31:31.977Z,0.8
2023-02-09T10:46:01.117Z,0.8
2023-02-09T11:01:35.217Z,1.4
2023-02-09T11:16:01.826Z,1.4
2023-02-09T11:31:32.087Z,1.6
2023-02-09T11:46:01.681Z,1.9
2023-02-09T12:01:49.284Z,2.6
2023-02-09T12:16:01.442Z,2.6
2023-02-09T12:31:24.413Z,2.8
2023-02-09T12:46:13.338Z,3.2
2023-02-09T13:01:29.208Z,3.8
2023-02-09T13:16:03.075Z,3.8
2023-02-09T13:31:29.482Z,4
2023-02-09T13:46:02.335Z,4.3
2023-02-09T14:01:29.911Z,4.7
2023-02-09T14:16:00.427Z,4.7
2023-02-09T14:31:35.681Z,5.2
2023-02-09T14:46:02.045Z,5.2
2023-02-09T15:01:36.574Z,5.7
2023-02-09T15:16:00.479Z,5.7
2023-02-09T15:31:35.937Z,5.9
2023-02-09T15:46:01.618Z,5.9
2023-02-09T16:01:27.192Z,5.9
2023-02-09T16:16:16.145Z,5.9
2023-02-09T16:31:32.638Z,5.3
2023-02-09T16:46:27.315Z,5.3
2023-02-09T17:00:57.616Z,4.8
2023-02-09T17:15:48.358Z,4.3
2023-02-09T17:31:00.738Z,3.8
2023-02-09T17:45:35.835Z,3.4
2023-02-09T18:01:00.049Z,3.1
2023-02-09T18:15:34.675Z,2.8
2023-02-09T18:30:57.206Z,2.6
2023-02-09T18:45:35.357Z,2.3
2023-02-09T19:00:57.922Z,2.2
2023-02-09T19:15:35.251Z,2
2023-02-09T19:31:00.311Z,1.8
2023-02-09T19:45:34.716Z,1.7
2023-02-09T20:00:56.243Z,1.5
2023-02-09T20:15:34.584Z,1.5
2023-02-09T20:30:58.021Z,1.3
2023-02-09T20:45:35.538Z,1.2
2023-02-09T21:00:56.794Z,1.1
2023-02-09T21:15:35.097Z,1.1
2023-02-09T21:31:00.407Z,1.1
2023-02-09T21:45:35.468Z,1
2023-02-09T22:00:58.014Z,0.9
2023-02-09T22:15:34.771Z,0.7
2023-02-09T22:30:58.800Z,0.5
2023-02-09T22:45:59.512Z,0.6
2023-02-09T23:01:10.399Z,0.5
2023-02-09T23:15:35.515Z,0.4
2023-02-09T23:30:58.350Z,0.1
2023-02-09T23:45:35.341Z,0.2
